sensor_id;sensor_type;location;lat;lon;timestamp;temperature;humidity
59923;DHT22;45778;51.142;3.732;2023-07-22T00:00:55;15.90;99.90
59923;DHT22;45778;51.142;3.732;2023-07-22T00:03:21;15.90;99.90
59923;DHT22;45778;51.142;3.732;2023-07-22T00:05:48;15.70;99.90
59923;DHT22;45778;51.142;3.732;2023-07-22T00:08:14;15.70;99.90
59923;DHT22;45778;51.142;3.732;2023-07-22T00:10:42;15.70;99.90
59923;DHT22;45778;51.142;3.732;2023-07-22T00:13:08;15.80;99.90
59923;DHT22;45778;51.142;3.732;2023-07-22T00:15:34;15.70;99.90
59923;DHT22;45778;51.142;3.732;2023-07-22T00:18:00;15.50;99.90
59923;DHT22;45778;51.142;3.732;2023-07-22T00:20:26;15.50;99.90
59923;DHT22;45778;51.142;3.732;2023-07-22T00:22:52;15.40;99.90
59923;DHT22;45778;51.142;3.732;2023-07-22T00:25:18;15.40;99.90
59923;DHT22;45778;51.142;3.732;2023-07-22T00:27:43;15.40;99.90
59923;DHT22;45778;51.142;3.732;2023-07-22T00:30:09;15.40;99.90
59923;DHT22;45778;51.142;3.732;2023-07-22T00:32:36;15.40;99.90
59923;DHT22;45778;51.142;3.732;2023-07-22T00:35:06;15.20;99.90
59923;DHT22;45778;51.142;3.732;2023-07-22T00:37:32;15.20;99.90
59923;DHT22;45778;51.142;3.732;2023-07-22T00:39:58;15.20;99.90
59923;DHT22;45778;51.142;3.732;2023-07-22T00:42:24;15.20;99.90
59923;DHT22;45778;51.142;3.732;2023-07-22T00:44:50;15.30;99.90
59923;DHT22;45778;51.142;3.732;2023-07-22T00:47:17;15.40;99.90
59923;DHT22;45778;51.142;3.732;2023-07-22T00:49:44;15.40;99.90
59923;DHT22;45778;51.142;3.732;2023-07-22T00:52:10;15.40;99.90
59923;DHT22;45778;51.142;3.732;2023-07-22T00:54:36;15.30;99.90
59923;DHT22;45778;51.142;3.732;2023-07-22T00:57:01;15.30;99.90
59923;DHT22;45778;51.142;3.732;2023-07-22T00:59:28;15.30;99.90
59923;DHT22;45778;51.142;3.732;2023-07-22T01:01:54;15.20;99.90
59923;DHT22;45778;51.142;3.732;2023-07-22T01:04:20;15.10;99.90
59923;DHT22;45778;51.142;3.732;2023-07-22T01:06:48;15.10;99.90
59923;DHT22;45778;51.142;3.732;2023-07-22T01:09:14;15.00;99.90
59923;DHT22;45778;51.142;3.732;2023-07-22T01:11:40;15.10;99.90
59923;DHT22;45778;51.142;3.732;2023-07-22T01:14:05;15.00;99.90
59923;DHT22;45778;51.142;3.732;2023-07-22T01:16:33;15.10;99.90
59923;DHT22;45778;51.142;3.732;2023-07-22T01:18:59;15.00;99.90
59923;DHT22;45778;51.142;3.732;2023-07-22T01:21:26;15.00;99.90
59923;DHT22;45778;51.142;3.732;2023-07-22T01:23:52;15.10;99.90
59923;DHT22;45778;51.142;3.732;2023-07-22T01:26:19;15.10;99.90
59923;DHT22;45778;51.142;3.732;2023-07-22T01:28:45;15.10;99.90
59923;DHT22;45778;51.142;3.732;2023-07-22T01:31:11;15.10;99.90
59923;DHT22;45778;51.142;3.732;2023-07-22T01:33:37;15.10;99.90
59923;DHT22;45778;51.142;3.732;2023-07-22T01:36:03;15.10;99.90
59923;DHT22;45778;51.142;3.732;2023-07-22T01:38:29;15.10;99.90
59923;DHT22;45778;51.142;3.732;2023-07-22T01:40:57;15.10;99.90
59923;DHT22;45778;51.142;3.732;2023-07-22T01:43:23;15.10;99.90
59923;DHT22;45778;51.142;3.732;2023-07-22T01:45:49;15.20;99.90
59923;DHT22;45778;51.142;3.732;2023-07-22T01:48:15;15.10;99.90
59923;DHT22;45778;51.142;3.732;2023-07-22T01:50:41;15.10;99.90
59923;DHT22;45778;51.142;3.732;2023-07-22T01:53:07;15.10;99.90
59923;DHT22;45778;51.142;3.732;2023-07-22T01:55:33;15.10;99.90
59923;DHT22;45778;51.142;3.732;2023-07-22T01:57:58;15.10;99.90
59923;DHT22;45778;51.142;3.732;2023-07-22T02:00:24;15.10;99.90
59923;DHT22;45778;51.142;3.732;2023-07-22T02:02:50;15.10;99.90
59923;DHT22;45778;51.142;3.732;2023-07-22T02:05:16;15.10;99.90
59923;DHT22;45778;51.142;3.732;2023-07-22T02:07:41;15.10;99.90
59923;DHT22;45778;51.142;3.732;2023-07-22T02:10:08;15.10;99.90
59923;DHT22;45778;51.142;3.732;2023-07-22T02:12:35;15.10;99.90
59923;DHT22;45778;51.142;3.732;2023-07-22T02:15:01;15.00;99.90
59923;DHT22;45778;51.142;3.732;2023-07-22T02:17:28;15.00;99.90
59923;DHT22;45778;51.142;3.732;2023-07-22T02:19:53;15.00;99.90
59923;DHT22;45778;51.142;3.732;2023-07-22T02:22:20;14.90;99.90
59923;DHT22;45778;51.142;3.732;2023-07-22T02:24:45;14.90;99.90
59923;DHT22;45778;51.142;3.732;2023-07-22T02:27:11;14.90;99.90
59923;DHT22;45778;51.142;3.732;2023-07-22T02:29:37;14.90;99.90
59923;DHT22;45778;51.142;3.732;2023-07-22T02:32:03;14.80;99.90
59923;DHT22;45778;51.142;3.732;2023-07-22T02:34:29;14.90;99.90
59923;DHT22;45778;51.142;3.732;2023-07-22T02:36:54;14.80;99.90
59923;DHT22;45778;51.142;3.732;2023-07-22T02:39:20;14.80;99.90
59923;DHT22;45778;51.142;3.732;2023-07-22T02:41:46;14.80;99.90
59923;DHT22;45778;51.142;3.732;2023-07-22T02:44:11;14.70;99.90
59923;DHT22;45778;51.142;3.732;2023-07-22T02:46:38;14.80;99.90
59923;DHT22;45778;51.142;3.732;2023-07-22T02:49:03;14.80;99.90
59923;DHT22;45778;51.142;3.732;2023-07-22T02:51:30;14.80;99.90
59923;DHT22;45778;51.142;3.732;2023-07-22T02:53:56;14.70;99.90
59923;DHT22;45778;51.142;3.732;2023-07-22T02:56:22;14.60;99.90
59923;DHT22;45778;51.142;3.732;2023-07-22T02:58:49;14.60;99.90
59923;DHT22;45778;51.142;3.732;2023-07-22T03:01:15;14.50;99.90
59923;DHT22;45778;51.142;3.732;2023-07-22T03:03:41;14.60;99.90
59923;DHT22;45778;51.142;3.732;2023-07-22T03:06:06;14.50;99.90
59923;DHT22;45778;51.142;3.732;2023-07-22T03:08:34;14.50;99.90
59923;DHT22;45778;51.142;3.732;2023-07-22T03:11:00;14.60;99.90
59923;DHT22;45778;51.142;3.732;2023-07-22T03:13:26;14.50;99.90
59923;DHT22;45778;51.142;3.732;2023-07-22T03:15:55;14.50;99.90
59923;DHT22;45778;51.142;3.732;2023-07-22T03:18:21;14.50;99.90
59923;DHT22;45778;51.142;3.732;2023-07-22T03:20:48;14.40;99.90
59923;DHT22;45778;51.142;3.732;2023-07-22T03:23:13;14.40;99.90
59923;DHT22;45778;51.142;3.732;2023-07-22T03:25:39;14.40;99.90
59923;DHT22;45778;51.142;3.732;2023-07-22T03:28:06;14.40;99.90
59923;DHT22;45778;51.142;3.732;2023-07-22T03:30:32;14.40;99.90
59923;DHT22;45778;51.142;3.732;2023-07-22T03:32:59;14.40;99.90
59923;DHT22;45778;51.142;3.732;2023-07-22T03:35:26;14.30;99.90
59923;DHT22;45778;51.142;3.732;2023-07-22T03:37:52;14.30;99.90
59923;DHT22;45778;51.142;3.732;2023-07-22T03:40:17;14.30;99.90
59923;DHT22;45778;51.142;3.732;2023-07-22T03:42:51;14.30;99.90
59923;DHT22;45778;51.142;3.732;2023-07-22T03:45:20;14.20;99.90
59923;DHT22;45778;51.142;3.732;2023-07-22T03:47:50;14.30;99.90
59923;DHT22;45778;51.142;3.732;2023-07-22T03:50:16;14.30;99.90
59923;DHT22;45778;51.142;3.732;2023-07-22T03:52:42;14.20;99.90
59923;DHT22;45778;51.142;3.732;2023-07-22T03:55:08;14.20;99.90
59923;DHT22;45778;51.142;3.732;2023-07-22T03:57:34;14.20;99.90
59923;DHT22;45778;51.142;3.732;2023-07-22T04:00:00;14.20;99.90
59923;DHT22;45778;51.142;3.732;2023-07-22T04:02:26;14.20;99.90
59923;DHT22;45778;51.142;3.732;2023-07-22T04:04:53;14.20;99.90
59923;DHT22;45778;51.142;3.732;2023-07-22T04:07:19;14.20;99.90
59923;DHT22;45778;51.142;3.732;2023-07-22T04:09:45;14.30;99.90
59923;DHT22;45778;51.142;3.732;2023-07-22T04:12:11;14.30;99.90
59923;DHT22;45778;51.142;3.732;2023-07-22T04:14:38;14.30;99.90
59923;DHT22;45778;51.142;3.732;2023-07-22T04:17:04;14.40;99.90
59923;DHT22;45778;51.142;3.732;2023-07-22T04:19:30;14.40;99.90
59923;DHT22;45778;51.142;3.732;2023-07-22T04:21:56;14.50;99.90
59923;DHT22;45778;51.142;3.732;2023-07-22T04:24:22;14.50;99.90
59923;DHT22;45778;51.142;3.732;2023-07-22T04:26:47;14.50;99.90
59923;DHT22;45778;51.142;3.732;2023-07-22T04:29:13;14.50;99.90
59923;DHT22;45778;51.142;3.732;2023-07-22T04:31:39;14.40;99.90
59923;DHT22;45778;51.142;3.732;2023-07-22T04:34:05;14.40;99.90
59923;DHT22;45778;51.142;3.732;2023-07-22T04:36:31;14.40;99.90
59923;DHT22;45778;51.142;3.732;2023-07-22T04:38:57;14.50;99.90
59923;DHT22;45778;51.142;3.732;2023-07-22T04:41:23;14.50;99.90
59923;DHT22;45778;51.142;3.732;2023-07-22T04:43:50;14.60;99.90
59923;DHT22;45778;51.142;3.732;2023-07-22T04:46:16;14.50;99.90
59923;DHT22;45778;51.142;3.732;2023-07-22T04:48:42;14.50;99.90
59923;DHT22;45778;51.142;3.732;2023-07-22T04:51:08;14.50;99.90
59923;DHT22;45778;51.142;3.732;2023-07-22T04:53:33;14.60;99.90
59923;DHT22;45778;51.142;3.732;2023-07-22T04:55:59;14.60;99.90
59923;DHT22;45778;51.142;3.732;2023-07-22T04:58:25;14.50;99.90
59923;DHT22;45778;51.142;3.732;2023-07-22T05:00:51;14.50;99.90
59923;DHT22;45778;51.142;3.732;2023-07-22T05:03:17;14.50;99.90
59923;DHT22;45778;51.142;3.732;2023-07-22T05:05:44;14.50;99.90
59923;DHT22;45778;51.142;3.732;2023-07-22T05:08:10;14.50;99.90
59923;DHT22;45778;51.142;3.732;2023-07-22T05:10:39;14.60;99.90
59923;DHT22;45778;51.142;3.732;2023-07-22T05:13:05;14.70;99.90
59923;DHT22;45778;51.142;3.732;2023-07-22T05:15:31;14.80;99.90
59923;DHT22;45778;51.142;3.732;2023-07-22T05:17:56;14.80;99.90
59923;DHT22;45778;51.142;3.732;2023-07-22T05:20:22;14.90;99.90
59923;DHT22;45778;51.142;3.732;2023-07-22T05:22:48;15.00;99.90
59923;DHT22;45778;51.142;3.732;2023-07-22T05:25:14;15.00;99.90
59923;DHT22;45778;51.142;3.732;2023-07-22T05:27:40;15.00;99.90
59923;DHT22;45778;51.142;3.732;2023-07-22T05:30:07;15.00;99.90
59923;DHT22;45778;51.142;3.732;2023-07-22T05:32:33;15.00;99.90
59923;DHT22;45778;51.142;3.732;2023-07-22T05:34:58;15.10;99.90
59923;DHT22;45778;51.142;3.732;2023-07-22T05:37:25;15.20;99.90
59923;DHT22;45778;51.142;3.732;2023-07-22T05:39:50;15.30;99.90
59923;DHT22;45778;51.142;3.732;2023-07-22T05:42:17;15.30;99.90
59923;DHT22;45778;51.142;3.732;2023-07-22T05:44:43;15.30;99.90
59923;DHT22;45778;51.142;3.732;2023-07-22T05:47:09;15.30;99.90
59923;DHT22;45778;51.142;3.732;2023-07-22T05:49:35;15.40;99.90
59923;DHT22;45778;51.142;3.732;2023-07-22T05:52:01;15.30;99.90
59923;DHT22;45778;51.142;3.732;2023-07-22T05:54:26;15.40;99.90
59923;DHT22;45778;51.142;3.732;2023-07-22T05:56:52;15.50;99.90
59923;DHT22;45778;51.142;3.732;2023-07-22T05:59:18;15.60;99.90
59923;DHT22;45778;51.142;3.732;2023-07-22T06:01:43;15.70;99.90
59923;DHT22;45778;51.142;3.732;2023-07-22T06:04:09;16.00;99.90
59923;DHT22;45778;51.142;3.732;2023-07-22T06:06:35;16.10;99.90
59923;DHT22;45778;51.142;3.732;2023-07-22T06:09:01;16.30;99.90
59923;DHT22;45778;51.142;3.732;2023-07-22T06:11:27;16.20;99.90
59923;DHT22;45778;51.142;3.732;2023-07-22T06:13:54;16.30;99.90
59923;DHT22;45778;51.142;3.732;2023-07-22T06:16:19;16.40;99.90
59923;DHT22;45778;51.142;3.732;2023-07-22T06:18:45;16.30;99.90
59923;DHT22;45778;51.142;3.732;2023-07-22T06:21:11;16.10;99.90
59923;DHT22;45778;51.142;3.732;2023-07-22T06:23:36;16.10;99.90
59923;DHT22;45778;51.142;3.732;2023-07-22T06:26:02;16.10;99.90
59923;DHT22;45778;51.142;3.732;2023-07-22T06:28:28;16.10;99.90
59923;DHT22;45778;51.142;3.732;2023-07-22T06:30:54;16.00;99.90
59923;DHT22;45778;51.142;3.732;2023-07-22T06:33:19;16.10;99.90
59923;DHT22;45778;51.142;3.732;2023-07-22T06:35:45;16.20;99.90
59923;DHT22;45778;51.142;3.732;2023-07-22T06:38:11;16.40;99.90
59923;DHT22;45778;51.142;3.732;2023-07-22T06:40:37;16.60;99.90
59923;DHT22;45778;51.142;3.732;2023-07-22T06:43:02;16.50;99.90
59923;DHT22;45778;51.142;3.732;2023-07-22T06:45:28;16.50;99.90
59923;DHT22;45778;51.142;3.732;2023-07-22T06:47:54;16.60;99.90
59923;DHT22;45778;51.142;3.732;2023-07-22T06:50:19;16.60;99.90
59923;DHT22;45778;51.142;3.732;2023-07-22T06:52:45;16.60;99.90
59923;DHT22;45778;51.142;3.732;2023-07-22T06:55:11;16.50;99.90
59923;DHT22;45778;51.142;3.732;2023-07-22T06:57:37;16.60;99.90
59923;DHT22;45778;51.142;3.732;2023-07-22T07:00:04;16.60;99.90
59923;DHT22;45778;51.142;3.732;2023-07-22T07:02:30;16.60;99.90
59923;DHT22;45778;51.142;3.732;2023-07-22T07:04:56;16.60;99.90
59923;DHT22;45778;51.142;3.732;2023-07-22T07:07:22;16.70;99.90
59923;DHT22;45778;51.142;3.732;2023-07-22T07:09:47;16.80;99.90
59923;DHT22;45778;51.142;3.732;2023-07-22T07:12:13;17.00;99.90
59923;DHT22;45778;51.142;3.732;2023-07-22T07:14:39;17.00;99.90
59923;DHT22;45778;51.142;3.732;2023-07-22T07:17:05;17.30;99.90
59923;DHT22;45778;51.142;3.732;2023-07-22T07:19:30;17.60;99.90
59923;DHT22;45778;51.142;3.732;2023-07-22T07:21:56;17.60;99.90
59923;DHT22;45778;51.142;3.732;2023-07-22T07:24:22;17.60;99.90
59923;DHT22;45778;51.142;3.732;2023-07-22T07:26:48;17.60;99.90
59923;DHT22;45778;51.142;3.732;2023-07-22T07:29:13;17.60;99.90
59923;DHT22;45778;51.142;3.732;2023-07-22T07:31:39;17.40;99.90
59923;DHT22;45778;51.142;3.732;2023-07-22T07:34:05;17.50;99.90
59923;DHT22;45778;51.142;3.732;2023-07-22T07:36:34;17.60;99.90
59923;DHT22;45778;51.142;3.732;2023-07-22T07:39:00;17.60;99.90
59923;DHT22;45778;51.142;3.732;2023-07-22T07:41:25;17.70;99.90
59923;DHT22;45778;51.142;3.732;2023-07-22T07:43:51;17.70;99.90
59923;DHT22;45778;51.142;3.732;2023-07-22T07:46:26;17.60;99.90
59923;DHT22;45778;51.142;3.732;2023-07-22T07:48:54;17.50;99.90
59923;DHT22;45778;51.142;3.732;2023-07-22T07:51:22;17.70;99.90
59923;DHT22;45778;51.142;3.732;2023-07-22T07:53:48;17.80;99.90
59923;DHT22;45778;51.142;3.732;2023-07-22T07:56:15;17.80;99.90
59923;DHT22;45778;51.142;3.732;2023-07-22T07:58:41;18.00;99.90
59923;DHT22;45778;51.142;3.732;2023-07-22T08:01:08;18.10;99.90
59923;DHT22;45778;51.142;3.732;2023-07-22T08:03:34;18.00;99.90
59923;DHT22;45778;51.142;3.732;2023-07-22T08:06:01;18.10;99.90
59923;DHT22;45778;51.142;3.732;2023-07-22T08:08:27;18.30;99.90
59923;DHT22;45778;51.142;3.732;2023-07-22T08:11:09;18.30;99.90
59923;DHT22;45778;51.142;3.732;2023-07-22T08:13:36;18.20;99.90
59923;DHT22;45778;51.142;3.732;2023-07-22T08:16:02;18.30;99.90
59923;DHT22;45778;51.142;3.732;2023-07-22T08:18:29;18.40;99.90
59923;DHT22;45778;51.142;3.732;2023-07-22T08:20:55;18.50;99.90
59923;DHT22;45778;51.142;3.732;2023-07-22T08:23:21;18.50;99.90
59923;DHT22;45778;51.142;3.732;2023-07-22T08:25:47;18.40;99.90
59923;DHT22;45778;51.142;3.732;2023-07-22T08:28:13;18.40;99.90
59923;DHT22;45778;51.142;3.732;2023-07-22T08:30:39;18.60;99.90
59923;DHT22;45778;51.142;3.732;2023-07-22T08:33:09;18.80;99.90
59923;DHT22;45778;51.142;3.732;2023-07-22T08:35:37;19.10;99.90
59923;DHT22;45778;51.142;3.732;2023-07-22T08:38:03;19.20;99.90
59923;DHT22;45778;51.142;3.732;2023-07-22T08:40:36;19.30;99.90
59923;DHT22;45778;51.142;3.732;2023-07-22T08:43:03;19.50;99.90
59923;DHT22;45778;51.142;3.732;2023-07-22T08:45:30;19.70;99.90
59923;DHT22;45778;51.142;3.732;2023-07-22T08:47:58;19.70;99.90
59923;DHT22;45778;51.142;3.732;2023-07-22T08:50:29;19.70;99.90
59923;DHT22;45778;51.142;3.732;2023-07-22T08:52:55;19.90;99.90
59923;DHT22;45778;51.142;3.732;2023-07-22T08:55:22;19.90;99.90
59923;DHT22;45778;51.142;3.732;2023-07-22T08:57:48;20.00;99.90
59923;DHT22;45778;51.142;3.732;2023-07-22T09:00:16;20.20;99.90
59923;DHT22;45778;51.142;3.732;2023-07-22T09:02:42;20.10;99.90
59923;DHT22;45778;51.142;3.732;2023-07-22T09:05:08;20.00;99.90
59923;DHT22;45778;51.142;3.732;2023-07-22T09:07:35;20.00;99.90
59923;DHT22;45778;51.142;3.732;2023-07-22T09:10:02;19.70;99.90
59923;DHT22;45778;51.142;3.732;2023-07-22T09:12:28;19.60;99.90
59923;DHT22;45778;51.142;3.732;2023-07-22T09:14:54;19.70;99.90
59923;DHT22;45778;51.142;3.732;2023-07-22T09:17:21;19.70;99.90
59923;DHT22;45778;51.142;3.732;2023-07-22T09:19:52;19.60;99.90
59923;DHT22;45778;51.142;3.732;2023-07-22T09:22:24;19.70;99.90
59923;DHT22;45778;51.142;3.732;2023-07-22T09:24:50;19.80;99.90
59923;DHT22;45778;51.142;3.732;2023-07-22T09:27:15;19.90;99.90
59923;DHT22;45778;51.142;3.732;2023-07-22T09:29:41;19.70;99.90
59923;DHT22;45778;51.142;3.732;2023-07-22T09:32:07;19.90;99.90
59923;DHT22;45778;51.142;3.732;2023-07-22T09:34:32;19.90;99.90
59923;DHT22;45778;51.142;3.732;2023-07-22T09:36:59;20.10;99.90
59923;DHT22;45778;51.142;3.732;2023-07-22T09:39:29;20.50;99.90
59923;DHT22;45778;51.142;3.732;2023-07-22T09:41:56;20.60;99.90
59923;DHT22;45778;51.142;3.732;2023-07-22T09:44:22;20.50;99.90
59923;DHT22;45778;51.142;3.732;2023-07-22T09:46:49;20.60;99.90
59923;DHT22;45778;51.142;3.732;2023-07-22T09:49:17;20.60;99.90
59923;DHT22;45778;51.142;3.732;2023-07-22T09:51:43;20.50;99.90
59923;DHT22;45778;51.142;3.732;2023-07-22T09:54:09;20.60;99.90
59923;DHT22;45778;51.142;3.732;2023-07-22T09:56:47;20.50;99.90
59923;DHT22;45778;51.142;3.732;2023-07-22T09:59:13;20.40;99.90
59923;DHT22;45778;51.142;3.732;2023-07-22T10:01:40;20.20;99.90
59923;DHT22;45778;51.142;3.732;2023-07-22T10:04:06;19.70;99.90
59923;DHT22;45778;51.142;3.732;2023-07-22T10:06:32;19.50;99.90
59923;DHT22;45778;51.142;3.732;2023-07-22T10:09:08;19.50;99.90
59923;DHT22;45778;51.142;3.732;2023-07-22T10:11:35;19.60;99.90
59923;DHT22;45778;51.142;3.732;2023-07-22T10:14:02;19.80;99.90
59923;DHT22;45778;51.142;3.732;2023-07-22T10:16:28;20.00;99.90
59923;DHT22;45778;51.142;3.732;2023-07-22T10:18:55;20.20;99.90
59923;DHT22;45778;51.142;3.732;2023-07-22T10:21:22;20.30;99.90
59923;DHT22;45778;51.142;3.732;2023-07-22T10:23:51;20.80;99.70
59923;DHT22;45778;51.142;3.732;2023-07-22T10:26:18;21.50;99.00
59923;DHT22;45778;51.142;3.732;2023-07-22T10:28:45;21.90;96.30
59923;DHT22;45778;51.142;3.732;2023-07-22T10:31:12;21.60;95.40
59923;DHT22;45778;51.142;3.732;2023-07-22T10:33:39;21.90;95.10
59923;DHT22;45778;51.142;3.732;2023-07-22T10:36:12;22.10;95.30
59923;DHT22;45778;51.142;3.732;2023-07-22T10:38:38;22.40;94.20
59923;DHT22;45778;51.142;3.732;2023-07-22T10:41:14;22.50;93.10
59923;DHT22;45778;51.142;3.732;2023-07-22T10:43:53;22.40;93.10
59923;DHT22;45778;51.142;3.732;2023-07-22T10:46:34;22.30;93.10
59923;DHT22;45778;51.142;3.732;2023-07-22T10:49:15;22.20;92.90
59923;DHT22;45778;51.142;3.732;2023-07-22T10:51:47;22.30;93.80
59923;DHT22;45778;51.142;3.732;2023-07-22T10:54:15;22.60;92.70
59923;DHT22;45778;51.142;3.732;2023-07-22T10:56:44;22.50;92.90
59923;DHT22;45778;51.142;3.732;2023-07-22T10:59:13;22.80;92.30
59923;DHT22;45778;51.142;3.732;2023-07-22T11:01:41;22.90;91.60
59923;DHT22;45778;51.142;3.732;2023-07-22T11:11:57;22.00;92.70
59923;DHT22;45778;51.142;3.732;2023-07-22T11:14:24;21.90;93.60
59923;DHT22;45778;51.142;3.732;2023-07-22T11:16:51;21.80;94.10
59923;DHT22;45778;51.142;3.732;2023-07-22T11:19:18;21.50;93.70
59923;DHT22;45778;51.142;3.732;2023-07-22T11:21:45;21.30;93.30
59923;DHT22;45778;51.142;3.732;2023-07-22T11:24:11;21.10;94.00
59923;DHT22;45778;51.142;3.732;2023-07-22T11:26:38;21.10;95.30
59923;DHT22;45778;51.142;3.732;2023-07-22T11:29:05;21.20;98.90
59923;DHT22;45778;51.142;3.732;2023-07-22T11:31:42;21.70;98.50
59923;DHT22;45778;51.142;3.732;2023-07-22T11:34:12;21.80;98.60
59923;DHT22;45778;51.142;3.732;2023-07-22T11:36:38;21.70;98.90
59923;DHT22;45778;51.142;3.732;2023-07-22T11:39:05;21.70;99.30
59923;DHT22;45778;51.142;3.732;2023-07-22T11:41:32;21.60;99.90
59923;DHT22;45778;51.142;3.732;2023-07-22T11:43:59;21.40;99.90
59923;DHT22;45778;51.142;3.732;2023-07-22T11:46:28;21.40;99.90
59923;DHT22;45778;51.142;3.732;2023-07-22T11:48:55;21.10;99.90
59923;DHT22;45778;51.142;3.732;2023-07-22T11:51:24;20.80;99.90
59923;DHT22;45778;51.142;3.732;2023-07-22T11:53:52;20.60;99.90
59923;DHT22;45778;51.142;3.732;2023-07-22T11:56:22;20.40;99.90
59923;DHT22;45778;51.142;3.732;2023-07-22T11:58:50;20.10;99.90
59923;DHT22;45778;51.142;3.732;2023-07-22T12:01:16;19.90;99.90
59923;DHT22;45778;51.142;3.732;2023-07-22T12:03:42;19.70;99.90
59923;DHT22;45778;51.142;3.732;2023-07-22T12:06:08;19.60;99.90
59923;DHT22;45778;51.142;3.732;2023-07-22T12:08:35;19.30;99.90
59923;DHT22;45778;51.142;3.732;2023-07-22T12:11:04;19.10;99.90
59923;DHT22;45778;51.142;3.732;2023-07-22T12:13:35;19.00;99.90
59923;DHT22;45778;51.142;3.732;2023-07-22T12:16:03;18.90;99.90
59923;DHT22;45778;51.142;3.732;2023-07-22T12:18:45;18.90;99.90
59923;DHT22;45778;51.142;3.732;2023-07-22T12:21:12;19.10;99.90
59923;DHT22;45778;51.142;3.732;2023-07-22T12:23:38;19.30;99.90
59923;DHT22;45778;51.142;3.732;2023-07-22T12:26:05;19.40;99.90
59923;DHT22;45778;51.142;3.732;2023-07-22T12:28:31;19.50;99.90
59923;DHT22;45778;51.142;3.732;2023-07-22T12:30:56;19.70;99.90
59923;DHT22;45778;51.142;3.732;2023-07-22T12:33:23;19.80;99.90
59923;DHT22;45778;51.142;3.732;2023-07-22T12:35:56;19.70;99.90
59923;DHT22;45778;51.142;3.732;2023-07-22T12:38:22;19.80;99.90
59923;DHT22;45778;51.142;3.732;2023-07-22T12:40:48;20.10;99.50
59923;DHT22;45778;51.142;3.732;2023-07-22T12:43:14;20.10;99.30
59923;DHT22;45778;51.142;3.732;2023-07-22T12:45:39;20.30;98.90
59923;DHT22;45778;51.142;3.732;2023-07-22T12:48:05;20.50;98.50
59923;DHT22;45778;51.142;3.732;2023-07-22T12:50:32;20.80;97.90
59923;DHT22;45778;51.142;3.732;2023-07-22T12:52:59;21.30;97.80
59923;DHT22;45778;51.142;3.732;2023-07-22T12:55:25;21.80;97.40
59923;DHT22;45778;51.142;3.732;2023-07-22T12:57:51;21.90;97.00
59923;DHT22;45778;51.142;3.732;2023-07-22T13:00:16;21.70;96.80
59923;DHT22;45778;51.142;3.732;2023-07-22T13:02:42;21.50;97.30
59923;DHT22;45778;51.142;3.732;2023-07-22T13:05:08;21.20;97.70
59923;DHT22;45778;51.142;3.732;2023-07-22T13:07:33;21.10;98.20
59923;DHT22;45778;51.142;3.732;2023-07-22T13:09:59;20.90;98.80
59923;DHT22;45778;51.142;3.732;2023-07-22T13:12:28;20.70;97.90
59923;DHT22;45778;51.142;3.732;2023-07-22T13:14:55;20.70;98.70
59923;DHT22;45778;51.142;3.732;2023-07-22T13:17:21;20.80;98.60
59923;DHT22;45778;51.142;3.732;2023-07-22T13:19:46;20.80;98.20
59923;DHT22;45778;51.142;3.732;2023-07-22T13:22:12;20.70;98.00
59923;DHT22;45778;51.142;3.732;2023-07-22T13:24:38;20.60;98.20
59923;DHT22;45778;51.142;3.732;2023-07-22T13:27:04;20.50;98.70
59923;DHT22;45778;51.142;3.732;2023-07-22T13:29:30;20.30;98.50
59923;DHT22;45778;51.142;3.732;2023-07-22T13:31:56;20.20;98.50
59923;DHT22;45778;51.142;3.732;2023-07-22T13:34:22;20.20;98.10
59923;DHT22;45778;51.142;3.732;2023-07-22T13:36:48;20.30;98.00
59923;DHT22;45778;51.142;3.732;2023-07-22T13:39:13;20.60;98.20
59923;DHT22;45778;51.142;3.732;2023-07-22T13:41:39;21.00;97.30
59923;DHT22;45778;51.142;3.732;2023-07-22T13:44:05;21.20;97.20
59923;DHT22;45778;51.142;3.732;2023-07-22T13:46:31;21.60;96.50
59923;DHT22;45778;51.142;3.732;2023-07-22T13:48:56;21.60;96.50
59923;DHT22;45778;51.142;3.732;2023-07-22T13:51:22;21.50;95.50
59923;DHT22;45778;51.142;3.732;2023-07-22T13:53:48;21.50;95.60
59923;DHT22;45778;51.142;3.732;2023-07-22T13:56:14;21.90;95.30
59923;DHT22;45778;51.142;3.732;2023-07-22T13:58:39;21.90;94.70
59923;DHT22;45778;51.142;3.732;2023-07-22T14:01:05;22.20;94.80
59923;DHT22;45778;51.142;3.732;2023-07-22T14:03:31;22.50;94.10
59923;DHT22;45778;51.142;3.732;2023-07-22T14:05:57;22.50;93.90
59923;DHT22;45778;51.142;3.732;2023-07-22T14:08:22;22.90;92.90
59923;DHT22;45778;51.142;3.732;2023-07-22T14:10:48;23.60;93.10
59923;DHT22;45778;51.142;3.732;2023-07-22T14:13:14;23.30;91.90
59923;DHT22;45778;51.142;3.732;2023-07-22T14:15:41;23.00;93.10
59923;DHT22;45778;51.142;3.732;2023-07-22T14:18:07;22.50;93.70
59923;DHT22;45778;51.142;3.732;2023-07-22T14:20:33;22.40;93.80
59923;DHT22;45778;51.142;3.732;2023-07-22T14:22:59;22.40;93.40
59923;DHT22;45778;51.142;3.732;2023-07-22T14:25:24;22.20;93.20
59923;DHT22;45778;51.142;3.732;2023-07-22T14:27:50;21.90;93.20
59923;DHT22;45778;51.142;3.732;2023-07-22T14:30:16;21.80;93.30
59923;DHT22;45778;51.142;3.732;2023-07-22T14:32:42;21.70;93.70
59923;DHT22;45778;51.142;3.732;2023-07-22T14:35:08;21.60;92.70
59923;DHT22;45778;51.142;3.732;2023-07-22T14:37:36;21.40;93.00
59923;DHT22;45778;51.142;3.732;2023-07-22T14:40:03;21.40;92.90
59923;DHT22;45778;51.142;3.732;2023-07-22T14:42:30;21.60;92.40
59923;DHT22;45778;51.142;3.732;2023-07-22T14:44:56;21.70;92.00
59923;DHT22;45778;51.142;3.732;2023-07-22T14:47:21;21.60;92.70
59923;DHT22;45778;51.142;3.732;2023-07-22T14:49:47;21.50;92.90
59923;DHT22;45778;51.142;3.732;2023-07-22T14:52:13;21.40;93.30
59923;DHT22;45778;51.142;3.732;2023-07-22T14:54:38;21.30;93.50
59923;DHT22;45778;51.142;3.732;2023-07-22T14:57:04;21.00;94.10
59923;DHT22;45778;51.142;3.732;2023-07-22T14:59:30;20.70;95.00
59923;DHT22;45778;51.142;3.732;2023-07-22T15:01:56;20.50;95.80
59923;DHT22;45778;51.142;3.732;2023-07-22T15:04:21;20.30;96.20
59923;DHT22;45778;51.142;3.732;2023-07-22T15:06:47;20.10;97.00
59923;DHT22;45778;51.142;3.732;2023-07-22T15:09:13;19.90;97.60
59923;DHT22;45778;51.142;3.732;2023-07-22T15:11:38;19.60;99.30
59923;DHT22;45778;51.142;3.732;2023-07-22T15:14:04;19.30;99.90
59923;DHT22;45778;51.142;3.732;2023-07-22T15:16:30;19.20;99.90
59923;DHT22;45778;51.142;3.732;2023-07-22T15:18:56;19.10;99.90
59923;DHT22;45778;51.142;3.732;2023-07-22T15:21:22;18.80;99.90
59923;DHT22;45778;51.142;3.732;2023-07-22T15:23:48;18.80;99.90
59923;DHT22;45778;51.142;3.732;2023-07-22T15:26:13;18.90;99.90
59923;DHT22;45778;51.142;3.732;2023-07-22T15:28:39;19.10;99.90
59923;DHT22;45778;51.142;3.732;2023-07-22T15:31:08;19.30;99.90
59923;DHT22;45778;51.142;3.732;2023-07-22T15:33:36;19.40;99.90